Houston, Texas
Traffic Map
Current Weather Conditions
Houston, Texas
Scattered Clouds
Scattered Clouds
73°
Feels Like: 73°
Wind Chill: 73° Ceiling: Unl
Heat Index: 73° Visibility: 10mi
Dew Point: 72° Wind: 0mph
Humidity: 96% Direction: ° ()
Pressure: 30in Gusts: 0mph
Raw Report DataKIAH 230453Z 00000KT 10SM FEW025 SCT250 23/22 A3000 RMK AO2 SLP157 T02280222 $
Traffic Incident Summary
Active as of:
Severity:
Category:
InformationThere was an issue retrieving the traffic information for this location. Please try a different location or try again shortly.
Advertisements